Cornelia, Georgia
Current Conditions -  °F | °C
As of 4:15 PM on Tuesday 21 Oct 2014 (Local Time) from KTOC Reporting Station
Clear Clear  
Wind Chill: 23°   Ceiling: Unl
Heat Index: 23°   Visibility: 10mi
Dew Point:   Wind: 12mph
Humidity: 33%   Direction: 260°W
Pressure: 29.91"   Gusts: 23mph
Location:  34.51°N, 83.53°W
Report Text: KTOC 212015Z AUTO 26010G20KT 10SM CLR 23/06 A2991 RMK AO2 T02300059
Loading
Personal Weather Stations






























Interactive Weather Map
Tropical Storm Tracking
New forecast layout! Learn more

10-Day Weather Forecast

Advertisements
Track Severe Weather on mobile